createdAt,value
2022-08-08T00:00:54.655Z,17.61
2022-08-08T00:02:45.203Z,17.56
2022-08-08T00:05:18.941Z,17.50
2022-08-08T00:08:13.928Z,17.44
2022-08-08T00:10:57.169Z,17.46
2022-08-08T00:14:15.333Z,17.37
2022-08-08T00:16:27.286Z,17.44
2022-08-08T00:19:19.096Z,17.52
2022-08-08T00:22:01.675Z,17.22
2022-08-08T00:24:35.734Z,17.18
2022-08-08T00:27:11.823Z,17.07
2022-08-08T00:29:48.282Z,17.06
2022-08-08T00:32:35.055Z,16.97
2022-08-08T00:35:15.335Z,16.94
2022-08-08T00:38:31.522Z,16.84
2022-08-08T00:41:11.327Z,17.08
2022-08-08T00:43:59.135Z,17.24
2022-08-08T00:46:58.461Z,17.26
2022-08-08T00:49:27.263Z,17.07
2022-08-08T00:52:19.552Z,16.93
2022-08-08T00:55:04.630Z,17.00
2022-08-08T00:57:56.984Z,16.96
2022-08-08T01:00:28.393Z,16.94
2022-08-08T01:04:02.645Z,17.04
2022-08-08T01:06:18.071Z,16.88
2022-08-08T01:09:35.069Z,16.92
2022-08-08T01:12:06.493Z,16.77
2022-08-08T01:14:57.188Z,16.80
2022-08-08T01:17:56.986Z,16.74
2022-08-08T01:20:34.175Z,16.60
2022-08-08T01:24:06.585Z,16.86
2022-08-08T01:26:23.973Z,16.65
2022-08-08T01:29:35.428Z,16.54
2022-08-08T01:32:22.769Z,16.51
2022-08-08T01:35:12.613Z,16.48
2022-08-08T01:38:14.714Z,16.37
2022-08-08T01:41:15.854Z,16.24
2022-08-08T01:43:55.401Z,16.22
2022-08-08T01:46:53.144Z,16.24
2022-08-08T01:49:37.876Z,16.17
2022-08-08T01:52:53.662Z,16.18
2022-08-08T01:55:45.428Z,16.16
2022-08-08T01:58:11.347Z,16.53
2022-08-08T02:00:33.069Z,16.46
2022-08-08T02:03:55.828Z,16.38
2022-08-08T02:06:02.726Z,16.40
2022-08-08T02:08:58.295Z,16.46
2022-08-08T02:11:52.538Z,16.33
2022-08-08T02:14:55.714Z,16.29
2022-08-08T02:17:42.727Z,16.40
2022-08-08T02:20:14.774Z,16.53
2022-08-08T02:22:55.351Z,16.43
2022-08-08T02:25:56.365Z,16.33
2022-08-08T02:28:51.684Z,16.20
2022-08-08T02:32:05.019Z,16.09
2022-08-08T02:34:39.626Z,16.00
2022-08-08T02:37:51.805Z,15.95
2022-08-08T02:40:41.615Z,16.11
2022-08-08T02:44:39.153Z,15.98
2022-08-08T02:46:25.196Z,16.26
2022-08-08T02:49:07.843Z,16.36
2022-08-08T02:51:59.023Z,16.39
2022-08-08T02:54:52.608Z,16.23
2022-08-08T02:57:52.944Z,16.09
2022-08-08T03:00:51.206Z,15.98
2022-08-08T03:05:04.803Z,15.91
2022-08-08T03:06:37.989Z,15.82
2022-08-08T03:09:33.092Z,15.74
2022-08-08T03:12:36.858Z,15.79
2022-08-08T03:15:57.187Z,15.79
2022-08-08T03:18:06.932Z,15.78
2022-08-08T03:20:47.078Z,15.69
2022-08-08T03:23:18.082Z,15.76
2022-08-08T03:25:50.392Z,15.80
2022-08-08T03:28:33.761Z,15.86
2022-08-08T03:31:25.312Z,16.00
2022-08-08T03:34:01.006Z,15.96
2022-08-08T03:36:30.612Z,16.09
2022-08-08T03:39:14.361Z,15.84
2022-08-08T03:42:11.794Z,15.77
2022-08-08T03:44:07.071Z,15.96
2022-08-08T03:46:51.357Z,16.11
2022-08-08T03:49:57.740Z,16.10
2022-08-08T03:51:59.196Z,16.07
2022-08-08T03:54:52.566Z,16.01
2022-08-08T03:58:33.831Z,16.04
2022-08-08T03:59:35.626Z,16.03
2022-08-08T04:02:36.397Z,16.02
2022-08-08T04:04:54.091Z,16.05
2022-08-08T04:07:26.227Z,16.09
2022-08-08T04:10:05.156Z,15.98
2022-08-08T04:12:32.382Z,15.96
2022-08-08T04:15:03.445Z,16.01
2022-08-08T04:17:57.836Z,15.94
2022-08-08T04:20:09.288Z,16.01
2022-08-08T04:22:40.422Z,15.99
2022-08-08T04:25:13.061Z,16.09
2022-08-08T04:28:34.928Z,16.12
2022-08-08T04:30:18.080Z,16.08
2022-08-08T04:32:49.921Z,16.06
2022-08-08T04:35:22.799Z,16.09
2022-08-08T04:37:54.452Z,16.36
2022-08-08T04:40:25.364Z,16.24
2022-08-08T04:42:58.092Z,16.32
2022-08-08T04:45:29.455Z,16.25
2022-08-08T04:48:03.813Z,16.30
2022-08-08T04:50:38.575Z,16.30
2022-08-08T04:53:14.245Z,16.32
2022-08-08T04:55:55.195Z,16.48
2022-08-08T04:58:12.690Z,16.54
2022-08-08T05:00:43.485Z,16.56
2022-08-08T05:03:19.084Z,16.62
2022-08-08T05:05:47.777Z,16.76
2022-08-08T05:08:19.900Z,17.01
2022-08-08T05:10:52.088Z,18.86
2022-08-08T05:13:26.054Z,20.47
2022-08-08T05:16:54.433Z,21.94
2022-08-08T05:18:28.085Z,22.02
2022-08-08T05:20:58.750Z,22.58
2022-08-08T05:23:29.975Z,23.07
2022-08-08T05:26:02.856Z,23.72
2022-08-08T05:28:56.272Z,25.86
2022-08-08T05:31:08.653Z,26.08
2022-08-08T05:33:48.296Z,28.02
2022-08-08T05:36:12.597Z,30.42
2022-08-08T05:38:50.600Z,27.76
2022-08-08T05:41:25.769Z,26.10
2022-08-08T05:44:03.488Z,26.30
2022-08-08T05:46:33.911Z,28.62
2022-08-08T05:49:10.385Z,27.78
2022-08-08T05:51:48.800Z,29.69
2022-08-08T05:54:27.712Z,32.11
2022-08-08T05:56:47.370Z,33.48
2022-08-08T06:00:00.756Z,31.00
2022-08-08T06:01:58.415Z,31.77
2022-08-08T06:04:34.595Z,30.00
2022-08-08T06:07:07.402Z,27.90
2022-08-08T06:10:00.360Z,29.08
2022-08-08T06:12:14.485Z,30.71
2022-08-08T06:14:47.896Z,32.23
2022-08-08T06:17:19.798Z,33.88
2022-08-08T06:19:52.886Z,35.13
2022-08-08T06:22:33.166Z,34.12
2022-08-08T06:24:57.215Z,36.14
2022-08-08T06:27:31.529Z,35.84
2022-08-08T06:30:11.931Z,33.81
2022-08-08T06:32:47.612Z,34.59
2022-08-08T06:36:04.490Z,35.80
2022-08-08T06:38:02.613Z,35.17
2022-08-08T06:40:36.807Z,36.74
2022-08-08T06:43:09.514Z,35.79
2022-08-08T06:45:40.793Z,30.79
2022-08-08T06:48:11.259Z,28.58
2022-08-08T06:50:44.704Z,27.24
2022-08-08T06:53:20.081Z,26.34
2022-08-08T06:56:02.658Z,25.64
2022-08-08T06:58:21.570Z,24.91
2022-08-08T07:00:52.878Z,24.54
2022-08-08T07:03:52.200Z,23.98
2022-08-08T07:06:03.922Z,23.96
2022-08-08T07:08:42.678Z,23.34
2022-08-08T07:11:22.306Z,23.26
2022-08-08T07:14:01.131Z,22.43
2022-08-08T07:16:51.147Z,22.35
2022-08-08T07:19:41.273Z,21.97
2022-08-08T07:22:18.640Z,21.81
2022-08-08T07:24:56.623Z,21.96
2022-08-08T07:27:47.417Z,21.94
2022-08-08T07:30:08.212Z,21.76
2022-08-08T07:32:33.780Z,21.72
2022-08-08T07:35:08.654Z,21.84
2022-08-08T07:37:49.754Z,22.31
2022-08-08T07:40:29.118Z,21.96
2022-08-08T07:42:50.023Z,21.81
2022-08-08T07:45:26.493Z,22.18
2022-08-08T07:47:58.494Z,21.98
2022-08-08T07:50:30.643Z,21.98
2022-08-08T07:53:05.500Z,21.92
2022-08-08T07:55:37.383Z,22.07
2022-08-08T07:58:25.870Z,22.16
2022-08-08T08:01:03.214Z,22.25
2022-08-08T08:03:41.509Z,22.20
2022-08-08T08:06:12.023Z,22.26
2022-08-08T08:08:52.261Z,22.33
2022-08-08T08:11:38.438Z,22.22
2022-08-08T08:14:07.550Z,22.23
2022-08-08T08:16:37.583Z,22.45
2022-08-08T08:19:10.735Z,22.54
2022-08-08T08:21:57.622Z,22.75
2022-08-08T08:24:20.794Z,22.70
2022-08-08T08:26:54.781Z,22.95
2022-08-08T08:29:27.750Z,22.97
2022-08-08T08:32:05.348Z,22.98
2022-08-08T08:34:32.381Z,23.27
2022-08-08T08:37:07.954Z,23.04
2022-08-08T08:39:59.994Z,22.93
2022-08-08T08:42:13.410Z,22.96
2022-08-08T08:44:45.321Z,22.83
2022-08-08T08:47:19.876Z,23.26
2022-08-08T08:49:52.087Z,23.42
2022-08-08T08:52:22.736Z,23.38
2022-08-08T08:54:59.135Z,23.51
2022-08-08T08:57:31.860Z,23.57
2022-08-08T09:00:05.649Z,23.59
2022-08-08T09:02:41.652Z,23.56
2022-08-08T09:05:13.996Z,23.86
2022-08-08T09:07:52.196Z,23.74
2022-08-08T09:10:21.310Z,23.88
2022-08-08T09:12:53.283Z,24.07
2022-08-08T09:15:41.002Z,24.11
2022-08-08T09:17:57.421Z,23.86
2022-08-08T09:22:00.535Z,23.82
2022-08-08T09:23:05.098Z,23.48
2022-08-08T09:25:54.633Z,23.50
2022-08-08T09:28:11.362Z,23.58
2022-08-08T09:30:44.900Z,23.87
2022-08-08T09:34:15.316Z,24.18
2022-08-08T09:35:53.018Z,24.22
2022-08-08T09:38:32.993Z,24.47
2022-08-08T09:41:06.827Z,24.37
2022-08-08T09:44:05.303Z,24.38
2022-08-08T09:46:25.665Z,23.89
2022-08-08T09:48:55.706Z,24.02
2022-08-08T09:51:29.947Z,24.26
2022-08-08T09:54:09.569Z,23.92
2022-08-08T09:56:40.901Z,24.73
2022-08-08T09:59:53.285Z,24.90
2022-08-08T10:01:59.000Z,24.61
2022-08-08T10:04:38.587Z,24.88
2022-08-08T10:06:58.590Z,25.24
2022-08-08T10:09:35.907Z,25.25
2022-08-08T10:12:27.156Z,24.68
2022-08-08T10:14:41.068Z,24.68
2022-08-08T10:17:57.218Z,24.96
2022-08-08T10:19:58.291Z,25.24
2022-08-08T10:22:20.409Z,25.07
2022-08-08T10:24:54.266Z,25.03
2022-08-08T10:27:34.290Z,24.71
2022-08-08T10:30:05.590Z,24.96
2022-08-08T10:32:40.454Z,24.86
2022-08-08T10:36:06.882Z,24.74
2022-08-08T10:37:55.841Z,24.60
2022-08-08T10:40:32.156Z,24.62
2022-08-08T10:43:05.133Z,24.52
2022-08-08T10:45:56.302Z,24.42
2022-08-08T10:48:20.236Z,24.67
2022-08-08T10:50:52.432Z,24.79
2022-08-08T10:53:56.720Z,24.91
2022-08-08T10:56:01.276Z,24.82
2022-08-08T10:58:33.409Z,24.75
2022-08-08T11:01:12.550Z,25.15
2022-08-08T11:04:00.622Z,25.36
2022-08-08T11:06:19.622Z,25.64
2022-08-08T11:08:53.721Z,25.76
2022-08-08T11:11:31.981Z,25.60
2022-08-08T11:14:00.644Z,25.29
2022-08-08T11:16:34.536Z,25.66
2022-08-08T11:19:06.343Z,25.82
2022-08-08T11:21:55.883Z,25.93
2022-08-08T11:24:19.916Z,26.22
2022-08-08T11:26:56.745Z,26.03
2022-08-08T11:29:41.510Z,25.82
2022-08-08T11:32:00.672Z,25.70
2022-08-08T11:34:58.495Z,25.44
2022-08-08T11:37:15.685Z,25.45
2022-08-08T11:39:42.659Z,26.11
2022-08-08T11:42:17.379Z,26.78
2022-08-08T11:44:49.213Z,26.94
2022-08-08T11:47:21.007Z,26.90
2022-08-08T11:50:05.333Z,27.06
2022-08-08T11:52:43.356Z,26.86
2022-08-08T11:55:18.948Z,27.31
2022-08-08T11:57:54.166Z,27.50
2022-08-08T12:00:28.663Z,27.32
2022-08-08T12:03:00.915Z,26.91
2022-08-08T12:05:38.912Z,27.04
2022-08-08T12:08:10.420Z,27.09
2022-08-08T12:10:53.283Z,26.26
2022-08-08T12:13:38.441Z,27.01
2022-08-08T12:16:16.693Z,26.93
2022-08-08T12:18:53.469Z,27.14
2022-08-08T12:21:59.313Z,27.41
2022-08-08T12:24:13.126Z,27.35
2022-08-08T12:26:54.098Z,27.22
2022-08-08T12:29:39.965Z,26.75
2022-08-08T12:32:09.670Z,26.88
2022-08-08T12:34:42.792Z,26.18
2022-08-08T12:37:22.244Z,26.36
2022-08-08T12:40:01.871Z,25.88
2022-08-08T12:42:33.404Z,25.61
2022-08-08T12:45:54.722Z,25.21
2022-08-08T12:48:04.680Z,25.09
2022-08-08T12:50:15.464Z,25.55
2022-08-08T12:52:55.805Z,25.53
2022-08-08T12:55:35.679Z,25.82
2022-08-08T12:58:04.356Z,26.07
2022-08-08T13:00:39.313Z,26.22
2022-08-08T13:03:10.634Z,26.45
2022-08-08T13:06:05.757Z,26.02
2022-08-08T13:08:20.352Z,26.42
2022-08-08T13:11:00.343Z,26.38
2022-08-08T13:13:37.112Z,26.91
2022-08-08T13:16:25.522Z,26.83
2022-08-08T13:19:01.700Z,26.41
2022-08-08T13:21:53.624Z,26.87
2022-08-08T13:24:07.451Z,27.47
2022-08-08T13:26:40.724Z,27.91
2022-08-08T13:29:15.328Z,27.66
2022-08-08T13:31:52.965Z,27.93
2022-08-08T13:34:29.366Z,27.66
2022-08-08T13:36:58.484Z,28.09
2022-08-08T13:39:29.843Z,28.52
2022-08-08T13:42:01.342Z,28.36
2022-08-08T13:44:34.654Z,28.34
2022-08-08T13:47:07.143Z,28.50
2022-08-08T13:50:35.280Z,28.06
2022-08-08T13:52:23.195Z,27.72
2022-08-08T13:54:49.561Z,26.71
2022-08-08T13:57:19.046Z,26.49
2022-08-08T13:59:52.988Z,26.89
2022-08-08T14:02:32.835Z,26.58
2022-08-08T14:05:09.130Z,26.58
2022-08-08T14:07:42.247Z,27.06
2022-08-08T14:10:32.985Z,27.08
2022-08-08T14:12:55.983Z,27.08
2022-08-08T14:15:46.042Z,26.78
2022-08-08T14:18:35.974Z,26.84
2022-08-08T14:20:57.013Z,26.38
2022-08-08T14:24:04.716Z,26.46
2022-08-08T14:26:02.104Z,26.94
2022-08-08T14:28:30.488Z,26.84
2022-08-08T14:31:11.552Z,27.15
2022-08-08T14:33:46.498Z,27.36
2022-08-08T14:36:18.947Z,27.34
2022-08-08T14:38:52.939Z,27.30
2022-08-08T14:41:53.198Z,27.10
2022-08-08T14:44:09.955Z,27.18
2022-08-08T14:46:34.057Z,26.45
2022-08-08T14:49:31.720Z,27.01
2022-08-08T14:52:14.483Z,26.92
2022-08-08T14:54:49.653Z,27.19
2022-08-08T14:57:20.783Z,27.04
2022-08-08T14:59:54.605Z,26.88
2022-08-08T15:02:30.884Z,27.29
2022-08-08T15:05:10.839Z,27.34
2022-08-08T15:07:39.374Z,27.54
2022-08-08T15:10:04.475Z,27.69
2022-08-08T15:12:37.024Z,27.36
2022-08-08T15:15:09.846Z,27.29
2022-08-08T15:17:42.209Z,27.24
2022-08-08T15:20:14.826Z,26.84
2022-08-08T15:22:47.000Z,26.78
2022-08-08T15:25:29.265Z,26.73
2022-08-08T15:28:04.616Z,26.62
2022-08-08T15:30:22.863Z,26.90
2022-08-08T15:32:53.929Z,26.92
2022-08-08T15:35:25.250Z,26.78
2022-08-08T15:37:56.083Z,26.57
2022-08-08T15:40:28.130Z,26.65
2022-08-08T15:42:59.685Z,26.25
2022-08-08T15:45:30.134Z,26.06
2022-08-08T15:48:15.473Z,26.15
2022-08-08T15:50:51.953Z,26.10
2022-08-08T15:53:23.771Z,26.34
2022-08-08T15:55:56.833Z,26.38
2022-08-08T15:58:30.812Z,26.05
2022-08-08T16:01:01.119Z,26.13
2022-08-08T16:03:33.173Z,26.37
2022-08-08T16:06:04.120Z,26.08
2022-08-08T16:08:38.025Z,26.12
2022-08-08T16:13:05.369Z,26.28
2022-08-08T16:13:46.201Z,26.40
2022-08-08T16:16:17.521Z,26.29
2022-08-08T16:18:56.805Z,25.97
2022-08-08T16:21:27.174Z,25.94
2022-08-08T16:23:56.432Z,26.24
2022-08-08T16:26:33.743Z,25.68
2022-08-08T16:29:01.321Z,25.82
2022-08-08T16:31:34.582Z,25.48
2022-08-08T16:34:06.792Z,25.77
2022-08-08T16:36:41.664Z,25.59
2022-08-08T16:39:27.807Z,26.00
2022-08-08T16:41:51.351Z,25.80
2022-08-08T16:44:28.039Z,25.72
2022-08-08T16:46:56.363Z,25.79
2022-08-08T16:49:23.305Z,25.64
2022-08-08T16:55:06.009Z,25.75
2022-08-08T16:55:06.259Z,25.63
2022-08-08T16:57:19.769Z,25.64
2022-08-08T16:59:50.635Z,25.42
2022-08-08T17:02:12.446Z,25.38
2022-08-08T17:04:38.489Z,25.62
2022-08-08T17:07:09.796Z,25.68
2022-08-08T17:09:45.307Z,25.88
2022-08-08T17:12:18.430Z,26.06
2022-08-08T17:14:47.083Z,26.44
2022-08-08T17:17:41.342Z,26.84
2022-08-08T17:19:49.732Z,26.50
2022-08-08T17:22:21.132Z,26.85
2022-08-08T17:24:53.541Z,26.77
2022-08-08T17:27:29.086Z,25.93
2022-08-08T17:29:57.518Z,25.88
2022-08-08T17:32:28.983Z,26.20
2022-08-08T17:35:54.464Z,26.61
2022-08-08T17:37:32.654Z,26.28
2022-08-08T17:40:12.789Z,25.90
2022-08-08T17:42:37.674Z,25.76
2022-08-08T17:45:14.211Z,25.99
2022-08-08T17:47:43.101Z,25.88
2022-08-08T17:50:15.370Z,26.41
2022-08-08T17:52:47.695Z,26.13
2022-08-08T17:56:06.109Z,25.81
2022-08-08T17:57:51.825Z,25.72
2022-08-08T18:00:30.349Z,25.11
2022-08-08T18:03:07.900Z,24.75
2022-08-08T18:05:28.458Z,24.97
2022-08-08T18:08:02.422Z,24.52
2022-08-08T18:10:33.137Z,24.40
2022-08-08T18:13:04.255Z,24.27
2022-08-08T18:15:36.319Z,24.26
2022-08-08T18:18:28.849Z,24.14
2022-08-08T18:20:55.053Z,24.21
2022-08-08T18:23:15.053Z,24.06
2022-08-08T18:25:45.312Z,23.91
2022-08-08T18:28:19.240Z,23.80
2022-08-08T18:30:50.487Z,23.68
2022-08-08T18:34:10.552Z,23.89
2022-08-08T18:35:53.103Z,23.69
2022-08-08T18:38:29.600Z,23.46
2022-08-08T18:40:57.505Z,23.54
2022-08-08T18:43:42.606Z,23.30
2022-08-08T18:46:54.106Z,23.19
2022-08-08T18:48:34.213Z,23.23
2022-08-08T18:51:21.509Z,23.03
2022-08-08T18:54:02.634Z,23.17
2022-08-08T18:56:24.477Z,22.84
2022-08-08T18:58:57.099Z,22.96
2022-08-08T19:02:25.347Z,22.78
2022-08-08T19:04:10.234Z,22.67
2022-08-08T19:06:32.238Z,22.62
2022-08-08T19:09:13.453Z,22.60
2022-08-08T19:11:36.465Z,22.67
2022-08-08T19:14:08.314Z,22.42
2022-08-08T19:16:41.692Z,22.39
2022-08-08T19:19:14.008Z,22.48
2022-08-08T19:21:48.711Z,22.40
2022-08-08T19:24:39.166Z,22.25
2022-08-08T19:26:53.155Z,22.18
2022-08-08T19:29:23.514Z,22.13
2022-08-08T19:31:54.949Z,22.12
2022-08-08T19:34:35.981Z,22.09
2022-08-08T19:37:00.115Z,22.11
2022-08-08T19:39:35.777Z,21.98
2022-08-08T19:42:04.700Z,21.96
2022-08-08T19:44:43.123Z,21.94
2022-08-08T19:47:08.478Z,22.02
2022-08-08T19:49:39.334Z,21.94
2022-08-08T19:52:13.618Z,21.77
2022-08-08T19:54:45.050Z,21.78
2022-08-08T19:57:16.087Z,21.65
2022-08-08T19:59:46.555Z,21.67
2022-08-08T20:02:18.639Z,21.60
2022-08-08T20:04:49.569Z,21.57
2022-08-08T20:08:28.532Z,21.50
2022-08-08T20:09:55.741Z,21.70
2022-08-08T20:12:34.460Z,21.56
2022-08-08T20:15:00.572Z,21.42
2022-08-08T20:17:31.100Z,21.38
2022-08-08T20:20:01.866Z,21.36
2022-08-08T20:22:33.032Z,21.38
2022-08-08T20:25:03.835Z,21.42
2022-08-08T20:27:49.345Z,21.30
2022-08-08T20:30:55.823Z,21.24
2022-08-08T20:32:45.853Z,21.28
2022-08-08T20:35:17.219Z,21.14
2022-08-08T20:37:53.361Z,21.16
2022-08-08T20:40:38.576Z,21.06
2022-08-08T20:42:55.282Z,21.02
2022-08-08T20:45:55.069Z,20.96
2022-08-08T20:48:01.408Z,20.98
2022-08-08T20:50:33.887Z,20.86
2022-08-08T20:53:06.862Z,20.80
2022-08-08T20:55:42.504Z,20.78
2022-08-08T20:58:13.717Z,20.67
2022-08-08T21:00:42.408Z,20.66
2022-08-08T21:03:16.780Z,20.61
2022-08-08T21:05:49.299Z,20.53
2022-08-08T21:08:35.996Z,20.50
2022-08-08T21:10:50.633Z,20.42
2022-08-08T21:13:23.406Z,20.40
2022-08-08T21:16:06.320Z,20.37
2022-08-08T21:18:27.907Z,20.31
2022-08-08T21:20:57.902Z,20.26
2022-08-08T21:24:02.816Z,20.27
2022-08-08T21:26:06.008Z,20.16
2022-08-08T21:28:37.289Z,20.10
2022-08-08T21:31:22.830Z,20.10
2022-08-08T21:33:42.641Z,20.05
2022-08-08T21:36:20.606Z,20.02
2022-08-08T21:38:51.493Z,19.98
2022-08-08T21:41:38.612Z,20.01
2022-08-08T21:43:54.484Z,19.94
2022-08-08T21:48:07.163Z,19.92
2022-08-08T21:48:58.631Z,19.96
2022-08-08T21:54:17.814Z,19.96
2022-08-08T21:54:32.401Z,19.92
2022-08-08T21:56:43.607Z,19.92
2022-08-08T21:59:09.743Z,19.99
2022-08-08T22:01:42.010Z,20.04
2022-08-08T22:04:14.278Z,20.13
2022-08-08T22:06:46.112Z,19.99
2022-08-08T22:09:16.714Z,20.02
2022-08-08T22:11:51.218Z,20.03
2022-08-08T22:14:19.925Z,19.98
2022-08-08T22:16:51.010Z,20.08
2022-08-08T22:19:23.657Z,20.10
2022-08-08T22:21:54.718Z,20.10
2022-08-08T22:24:28.208Z,20.09
2022-08-08T22:27:01.784Z,19.99
2022-08-08T22:30:02.712Z,19.97
2022-08-08T22:32:05.945Z,19.91
2022-08-08T22:34:39.421Z,19.96
2022-08-08T22:37:22.187Z,19.97
2022-08-08T22:40:00.417Z,19.84
2022-08-08T22:42:27.368Z,19.80
2022-08-08T22:44:52.617Z,19.81
2022-08-08T22:47:23.006Z,19.76
2022-08-08T22:50:00.014Z,19.66
2022-08-08T22:52:33.654Z,19.60
2022-08-08T22:55:05.494Z,19.58
2022-08-08T22:57:44.309Z,19.50
2022-08-08T23:00:09.124Z,19.59
2022-08-08T23:02:41.408Z,19.54
2022-08-08T23:05:14.634Z,19.48
2022-08-08T23:07:49.189Z,19.44
2022-08-08T23:10:21.100Z,19.38
2022-08-08T23:12:51.632Z,19.36
2022-08-08T23:16:37.965Z,19.34
2022-08-08T23:17:58.298Z,19.19
2022-08-08T23:20:27.371Z,19.22
2022-08-08T23:22:58.818Z,19.19
2022-08-08T23:25:30.177Z,19.16
2022-08-08T23:28:03.715Z,19.06
2022-08-08T23:30:34.837Z,19.12
2022-08-08T23:33:05.858Z,19.08
2022-08-08T23:36:06.620Z,19.08
2022-08-08T23:38:12.735Z,19.04
2022-08-08T23:40:46.438Z,19.02
2022-08-08T23:43:17.189Z,19.06
2022-08-08T23:49:04.619Z,19.02
2022-08-08T23:49:06.768Z,19.10
2022-08-08T23:50:57.425Z,19.02
2022-08-08T23:53:55.936Z,19.05
2022-08-08T23:55:56.833Z,19.16
2022-08-08T23:58:35.736Z,19.08
